Ben Wyvis — V7KF8 — position and weather

sailwx.info

Track history (hours):
 
Tides and Currents Weather Stations Pressure Air Temp Water Temp Dewpoint Dewpoint Depression Visibility Wind Speed Wind Dir Waves Ship Positions

Ben Wyvis

Last reported at 2017-Dec-01 20:30 UTC. Time now 2017-Dec-18 14:51 UTC.
Position S 24°25' W 046°24'.
Warning: this ship's position is 16 days out of date.

Length 179 m; draft 7.3 m.

Type: Cargo ship. MMSI: 538006155.

Date/timePositionNaut miles runAvg speedWind from/ knotsBaromVisibWave heightAir tempDewpointWater temp
2017-Dec-01 20:30S 24°25' W 046°24'611.3
2017-Dec-01 20:00S 24°19' W 046°24'611.2
2017-Dec-01 19:30S 24°13' W 046°24'611.2
2017-Dec-01 19:00S 24°08' W 046°24'611.6
2017-Dec-01 18:30S 24°02' W 046°21'4 8.4
2017-Dec-01 18:00S 23°60' W 046°18'  
2017-Nov-26 09:42S 23°55' W 046°22'2 6.9
2017-Nov-26 09:27S 23°55' W 046°20'3 7.7
2017-Nov-26 09:00S 23°58' W 046°18'3 6.5
2017-Nov-26 08:31S 24°00' W 046°20'5 9.7
2017-Nov-26 08:00S 24°05' W 046°22'3 6.9
2017-Nov-26 07:31S 24°07' W 046°20'0 0.3
2017-Nov-26 07:00S 24°07' W 046°20'0 0.0
2017-Nov-26 06:30S 24°07' W 046°20'0 0.0
2017-Nov-26 06:00S 24°07' W 046°20'0 0.0
2017-Nov-26 05:30S 24°07' W 046°20'0 0.0
2017-Nov-26 05:00S 24°07' W 046°20'0 0.0
2017-Nov-26 04:30S 24°07' W 046°20'0 0.0
2017-Nov-26 04:00S 24°07' W 046°20'0 0.1
2017-Nov-26 03:30S 24°07' W 046°20'0 0.1
2017-Nov-26 02:54S 24°07' W 046°20'0 0.0
2017-Nov-26 02:21S 24°07' W 046°20'0 0.0
2017-Nov-26 02:00S 24°07' W 046°20'0 0.0
2017-Nov-26 01:30S 24°07' W 046°20'0 0.1
2017-Nov-26 00:57S 24°07' W 046°20'0 0.0
2017-Nov-26 00:30S 24°07' W 046°20'0 0.0
2017-Nov-26 00:00S 24°07' W 046°20'0 0.0
2017-Nov-25 23:30S 24°07' W 046°20'0 0.0
2017-Nov-25 23:00S 24°07' W 046°20'0 0.0
2017-Nov-25 22:30S 24°07' W 046°20'0 0.0
2017-Nov-25 22:00S 24°07' W 046°20'0 0.0
2017-Nov-25 21:30S 24°07' W 046°20'0 0.0
2017-Nov-25 21:00S 24°07' W 046°20'0 0.0
2017-Nov-25 20:27S 24°07' W 046°20'0 0.0
2017-Nov-25 20:00S 24°07' W 046°20'0 0.0
2017-Nov-25 19:30S 24°07' W 046°20'0 0.0
2017-Nov-25 19:00S 24°07' W 046°20'0 0.0
2017-Nov-25 18:30S 24°07' W 046°20'0 0.0
2017-Nov-25 18:00S 24°07' W 046°20'0 0.0
2017-Nov-25 17:15S 24°07' W 046°20'0 0.0
2017-Nov-25 17:00S 24°07' W 046°20'0 0.0
2017-Nov-25 16:30S 24°07' W 046°20'0 0.0
2017-Nov-25 16:00S 24°07' W 046°20'0 0.0
2017-Nov-25 15:30S 24°07' W 046°20'0 0.0
2017-Nov-25 15:00S 24°07' W 046°20'0 0.0
2017-Nov-25 14:30S 24°07' W 046°20'0 0.0
2017-Nov-25 14:00S 24°07' W 046°20'0 0.1
2017-Nov-25 13:30S 24°07' W 046°20'0 0.1
2017-Nov-25 13:00S 24°07' W 046°20'0 0.1
2017-Nov-25 12:30S 24°07' W 046°20'0 0.2
2017-Nov-25 12:00S 24°07' W 046°20'0 0.1
2017-Nov-25 11:30S 24°08' W 046°20'0 0.1
2017-Nov-25 10:57S 24°08' W 046°20'0 0.0
2017-Nov-25 10:30S 24°08' W 046°20'0 0.1
2017-Nov-25 09:57S 24°07' W 046°20'0 0.1
2017-Nov-25 09:30S 24°07' W 046°20'0 0.0
2017-Nov-25 09:00S 24°07' W 046°20'0 0.0
2017-Nov-25 08:27S 24°07' W 046°20'0 0.0
2017-Nov-25 07:45S 24°07' W 046°20'0 0.0
2017-Nov-25 07:30S 24°07' W 046°20'0 0.1
2017-Nov-25 06:54S 24°07' W 046°20'0 0.0
2017-Nov-25 06:30S 24°07' W 046°20'0 0.0
2017-Nov-25 06:00S 24°07' W 046°20'0 0.0
2017-Nov-25 05:30S 24°07' W 046°20'0 0.0
2017-Nov-25 05:00S 24°07' W 046°20'0 0.0
2017-Nov-25 04:30S 24°07' W 046°20'0 0.0
2017-Nov-25 04:00S 24°07' W 046°20'0 0.0
2017-Nov-25 03:30S 24°07' W 046°20'0 0.0
2017-Nov-25 03:00S 24°07' W 046°20'0 0.0
2017-Nov-25 02:30S 24°07' W 046°20'0 0.0
2017-Nov-25 02:00S 24°07' W 046°20'0 0.0
2017-Nov-25 01:27S 24°07' W 046°20'0 0.0
2017-Nov-25 01:00S 24°07' W 046°20'0 0.0
2017-Nov-25 00:30S 24°07' W 046°20'0 0.0
2017-Nov-25 00:00S 24°07' W 046°20'0 0.0
2017-Nov-24 23:30S 24°07' W 046°20'0 0.0
2017-Nov-24 23:00S 24°07' W 046°20'0 0.0
2017-Nov-24 22:18S 24°07' W 046°20'0 0.0
2017-Nov-24 21:51S 24°07' W 046°20'0 0.0
2017-Nov-24 20:12S 24°07' W 046°20'0 0.0
2017-Nov-24 20:00S 24°07' W 046°20'0 0.0
2017-Nov-24 19:30S 24°07' W 046°20'0 0.0
2017-Nov-24 18:57S 24°07' W 046°20'0 0.0
2017-Nov-24 18:30S 24°07' W 046°20'0 0.0
2017-Nov-24 18:00S 24°07' W 046°20'0 0.0
2017-Nov-24 17:30S 24°07' W 046°20'0 0.0
2017-Nov-24 17:00S 24°07' W 046°20'0 0.0
2017-Nov-24 16:27S 24°07' W 046°20'0 0.0
2017-Nov-24 15:57S 24°07' W 046°20'0 0.0
2017-Nov-24 15:30S 24°07' W 046°20'0 0.0
2017-Nov-24 15:00S 24°07' W 046°20'0 0.0
2017-Nov-24 14:30S 24°07' W 046°20'0 0.0
2017-Nov-24 14:00S 24°07' W 046°20'0 0.0
2017-Nov-24 13:30S 24°07' W 046°20'0 0.0
2017-Nov-24 13:00S 24°07' W 046°20'0 0.0
2017-Nov-24 12:30S 24°07' W 046°20'0 0.1
2017-Nov-24 12:00S 24°07' W 046°20'0 0.0
2017-Nov-24 11:30S 24°07' W 046°20'0 0.0
2017-Nov-24 11:00S 24°07' W 046°20'0 0.0
2017-Nov-24 10:30S 24°07' W 046°20'0 0.0
2017-Nov-24 10:00S 24°07' W 046°20'0 0.0
2017-Nov-24 09:30S 24°07' W 046°20'0 0.0
2017-Nov-24 09:00S 24°07' W 046°20'0 0.0
2017-Nov-24 08:30S 24°07' W 046°20'0 0.0
2017-Nov-24 08:00S 24°07' W 046°20'0 0.0
2017-Nov-24 07:30S 24°07' W 046°20'0 0.0
2017-Nov-24 07:00S 24°07' W 046°20'0 0.0
2017-Nov-24 06:30S 24°07' W 046°20'0 0.0
2017-Nov-24 05:54S 24°07' W 046°20'0 0.0
2017-Nov-24 05:24S 24°07' W 046°20'0 0.0
2017-Nov-24 05:00S 24°07' W 046°20'0 0.2
2017-Nov-24 04:30S 24°07' W 046°20'0 0.1
2017-Nov-24 03:57S 24°07' W 046°20'0 0.1
2017-Nov-24 03:30S 24°07' W 046°20'0 0.0
2017-Nov-24 03:00S 24°07' W 046°20'0 0.0
2017-Nov-24 02:24S 24°07' W 046°20'0 0.0
2017-Nov-24 01:48S 24°07' W 046°20'0 0.0
2017-Nov-24 01:30S 24°07' W 046°20'0 0.0
2017-Nov-24 00:00S 24°07' W 046°20'0 0.0
2017-Nov-23 22:36S 24°07' W 046°20'0 0.0
2017-Nov-23 21:51S 24°07' W 046°20'0 0.0
2017-Nov-23 21:30S 24°07' W 046°20'0 0.0
2017-Nov-23 20:54S 24°07' W 046°20'0 0.0
2017-Nov-23 20:21S 24°07' W 046°20'0 0.1
2017-Nov-23 19:57S 24°07' W 046°20'0 0.0
2017-Nov-23 19:30S 24°07' W 046°20'0 0.0
2017-Nov-23 18:54S 24°07' W 046°20'0 0.0
2017-Nov-23 18:27S 24°07' W 046°20'0 0.0
2017-Nov-23 17:57S 24°07' W 046°20'0 0.0
2017-Nov-23 17:30S 24°07' W 046°20'0 0.0
2017-Nov-23 17:00S 24°07' W 046°20'0 0.0
2017-Nov-23 16:30S 24°07' W 046°20'0 0.0
2017-Nov-23 16:00S 24°07' W 046°20'0 0.0
2017-Nov-23 15:18S 24°07' W 046°20'0 0.0
2017-Nov-23 14:57S 24°07' W 046°20'0 0.0
2017-Nov-23 14:24S 24°07' W 046°20'0 0.1
2017-Nov-23 13:57S 24°07' W 046°20'0 0.1
2017-Nov-23 13:30S 24°07' W 046°20'0 0.0
2017-Nov-23 12:51S 24°07' W 046°20'0 0.1
2017-Nov-23 12:30S 24°07' W 046°20'0 0.0
2017-Nov-23 12:00S 24°07' W 046°20'0 0.0
2017-Nov-23 11:30S 24°07' W 046°20'0 0.0
2017-Nov-23 11:00S 24°07' W 046°20'0 0.0
2017-Nov-23 10:30S 24°07' W 046°20'0 0.0
2017-Nov-23 09:57S 24°07' W 046°20'0 0.0
2017-Nov-23 09:27S 24°07' W 046°20'0 0.0
2017-Nov-23 09:00S 24°07' W 046°20'0 0.0
2017-Nov-23 08:30S 24°07' W 046°20'0 0.0
2017-Nov-23 08:00S 24°07' W 046°20'0 0.0
2017-Nov-23 07:30S 24°07' W 046°20'0 0.0
2017-Nov-23 07:00S 24°07' W 046°20'0 0.0
2017-Nov-23 06:30S 24°07' W 046°20'0 0.0
2017-Nov-23 06:00S 24°07' W 046°20'0 0.0
2017-Nov-23 05:30S 24°07' W 046°20'0 0.0
2017-Nov-23 04:54S 24°07' W 046°20'0 0.1
2017-Nov-23 04:30S 24°07' W 046°20'0 0.0
2017-Nov-23 04:00S 24°07' W 046°20'0 0.0
2017-Nov-23 03:30S 24°07' W 046°20'0 0.0
2017-Nov-23 03:00S 24°07' W 046°20'0 0.0
2017-Nov-23 02:27S 24°07' W 046°20'0 0.0
2017-Nov-23 02:00S 24°07' W 046°20'0 0.0
2017-Nov-23 01:30S 24°07' W 046°20'0 0.0
2017-Nov-23 01:00S 24°07' W 046°20'0 0.0
2017-Nov-23 00:30S 24°07' W 046°20'0 0.0
2017-Nov-23 00:00S 24°07' W 046°20'0 0.0
2017-Nov-22 23:30S 24°07' W 046°20'0 0.0
2017-Nov-22 22:57S 24°07' W 046°20'0 0.0
2017-Nov-22 22:24S 24°07' W 046°20'0 0.0
2017-Nov-22 22:00S 24°07' W 046°20'0 0.0
2017-Nov-22 21:30S 24°07' W 046°20'0 0.0
2017-Nov-22 21:00S 24°07' W 046°20'0 0.0
2017-Nov-22 20:30S 24°07' W 046°20'0 0.0
2017-Nov-22 19:57S 24°07' W 046°20'0 0.0
2017-Nov-22 19:18S 24°07' W 046°20'  
Track history (hours):
 
Tides and Currents Weather Stations Pressure Air Temp Water Temp Dewpoint Dewpoint Depression Visibility Wind Speed Wind Dir Waves Ship Positions

Ben Wyvis

Last reported at 2017-Dec-01 20:30 UTC. Time now 2017-Dec-18 14:51 UTC.
Position S 24°25' W 046°24'.
Warning: this ship's position is 16 days out of date.

Length 179 m; draft 7.3 m.

Type: Cargo ship. MMSI: 538006155.

Date/timePositionNaut miles runAvg speedWind from/ knotsBaromVisibWave heightAir tempDewpointWater temp
2017-Dec-01 20:30S 24°25' W 046°24'611.3
2017-Dec-01 20:00S 24°19' W 046°24'611.2
2017-Dec-01 19:30S 24°13' W 046°24'611.2
2017-Dec-01 19:00S 24°08' W 046°24'611.6
2017-Dec-01 18:30S 24°02' W 046°21'4 8.4
2017-Dec-01 18:00S 23°60' W 046°18'  
2017-Nov-26 09:42S 23°55' W 046°22'2 6.9
2017-Nov-26 09:27S 23°55' W 046°20'3 7.7
2017-Nov-26 09:00S 23°58' W 046°18'3 6.5
2017-Nov-26 08:31S 24°00' W 046°20'5 9.7
2017-Nov-26 08:00S 24°05' W 046°22'3 6.9
2017-Nov-26 07:31S 24°07' W 046°20'0 0.3
2017-Nov-26 07:00S 24°07' W 046°20'0 0.0
2017-Nov-26 06:30S 24°07' W 046°20'0 0.0
2017-Nov-26 06:00S 24°07' W 046°20'0 0.0
2017-Nov-26 05:30S 24°07' W 046°20'0 0.0
2017-Nov-26 05:00S 24°07' W 046°20'0 0.0
2017-Nov-26 04:30S 24°07' W 046°20'0 0.0
2017-Nov-26 04:00S 24°07' W 046°20'0 0.1
2017-Nov-26 03:30S 24°07' W 046°20'0 0.1
2017-Nov-26 02:54S 24°07' W 046°20'0 0.0
2017-Nov-26 02:21S 24°07' W 046°20'0 0.0
2017-Nov-26 02:00S 24°07' W 046°20'0 0.0
2017-Nov-26 01:30S 24°07' W 046°20'0 0.1
2017-Nov-26 00:57S 24°07' W 046°20'0 0.0
2017-Nov-26 00:30S 24°07' W 046°20'0 0.0
2017-Nov-26 00:00S 24°07' W 046°20'0 0.0
2017-Nov-25 23:30S 24°07' W 046°20'0 0.0
2017-Nov-25 23:00S 24°07' W 046°20'0 0.0
2017-Nov-25 22:30S 24°07' W 046°20'0 0.0
2017-Nov-25 22:00S 24°07' W 046°20'0 0.0
2017-Nov-25 21:30S 24°07' W 046°20'0 0.0
2017-Nov-25 21:00S 24°07' W 046°20'0 0.0
2017-Nov-25 20:27S 24°07' W 046°20'0 0.0
2017-Nov-25 20:00S 24°07' W 046°20'0 0.0
2017-Nov-25 19:30S 24°07' W 046°20'0 0.0
2017-Nov-25 19:00S 24°07' W 046°20'0 0.0
2017-Nov-25 18:30S 24°07' W 046°20'0 0.0
2017-Nov-25 18:00S 24°07' W 046°20'0 0.0
2017-Nov-25 17:15S 24°07' W 046°20'0 0.0
2017-Nov-25 17:00S 24°07' W 046°20'0 0.0
2017-Nov-25 16:30S 24°07' W 046°20'0 0.0
2017-Nov-25 16:00S 24°07' W 046°20'0 0.0
2017-Nov-25 15:30S 24°07' W 046°20'0 0.0
2017-Nov-25 15:00S 24°07' W 046°20'0 0.0
2017-Nov-25 14:30S 24°07' W 046°20'0 0.0
2017-Nov-25 14:00S 24°07' W 046°20'0 0.1
2017-Nov-25 13:30S 24°07' W 046°20'0 0.1
2017-Nov-25 13:00S 24°07' W 046°20'0 0.1
2017-Nov-25 12:30S 24°07' W 046°20'0 0.2
2017-Nov-25 12:00S 24°07' W 046°20'0 0.1
2017-Nov-25 11:30S 24°08' W 046°20'0 0.1
2017-Nov-25 10:57S 24°08' W 046°20'0 0.0
2017-Nov-25 10:30S 24°08' W 046°20'0 0.1
2017-Nov-25 09:57S 24°07' W 046°20'0 0.1
2017-Nov-25 09:30S 24°07' W 046°20'0 0.0
2017-Nov-25 09:00S 24°07' W 046°20'0 0.0
2017-Nov-25 08:27S 24°07' W 046°20'0 0.0
2017-Nov-25 07:45S 24°07' W 046°20'0 0.0
2017-Nov-25 07:30S 24°07' W 046°20'0 0.1
2017-Nov-25 06:54S 24°07' W 046°20'0 0.0
2017-Nov-25 06:30S 24°07' W 046°20'0 0.0
2017-Nov-25 06:00S 24°07' W 046°20'0 0.0
2017-Nov-25 05:30S 24°07' W 046°20'0 0.0
2017-Nov-25 05:00S 24°07' W 046°20'0 0.0
2017-Nov-25 04:30S 24°07' W 046°20'0 0.0
2017-Nov-25 04:00S 24°07' W 046°20'0 0.0
2017-Nov-25 03:30S 24°07' W 046°20'0 0.0
2017-Nov-25 03:00S 24°07' W 046°20'0 0.0
2017-Nov-25 02:30S 24°07' W 046°20'0 0.0
2017-Nov-25 02:00S 24°07' W 046°20'0 0.0
2017-Nov-25 01:27S 24°07' W 046°20'0 0.0
2017-Nov-25 01:00S 24°07' W 046°20'0 0.0
2017-Nov-25 00:30S 24°07' W 046°20'0 0.0
2017-Nov-25 00:00S 24°07' W 046°20'0 0.0
2017-Nov-24 23:30S 24°07' W 046°20'0 0.0
2017-Nov-24 23:00S 24°07' W 046°20'0 0.0
2017-Nov-24 22:18S 24°07' W 046°20'0 0.0
2017-Nov-24 21:51S 24°07' W 046°20'0 0.0
2017-Nov-24 20:12S 24°07' W 046°20'0 0.0
2017-Nov-24 20:00S 24°07' W 046°20'0 0.0
2017-Nov-24 19:30S 24°07' W 046°20'0 0.0
2017-Nov-24 18:57S 24°07' W 046°20'0 0.0
2017-Nov-24 18:30S 24°07' W 046°20'0 0.0
2017-Nov-24 18:00S 24°07' W 046°20'0 0.0
2017-Nov-24 17:30S 24°07' W 046°20'0 0.0
2017-Nov-24 17:00S 24°07' W 046°20'0 0.0
2017-Nov-24 16:27S 24°07' W 046°20'0 0.0
2017-Nov-24 15:57S 24°07' W 046°20'0 0.0
2017-Nov-24 15:30S 24°07' W 046°20'0 0.0
2017-Nov-24 15:00S 24°07' W 046°20'0 0.0
2017-Nov-24 14:30S 24°07' W 046°20'0 0.0
2017-Nov-24 14:00S 24°07' W 046°20'0 0.0
2017-Nov-24 13:30S 24°07' W 046°20'0 0.0
2017-Nov-24 13:00S 24°07' W 046°20'0 0.0
2017-Nov-24 12:30S 24°07' W 046°20'0 0.1
2017-Nov-24 12:00S 24°07' W 046°20'0 0.0
2017-Nov-24 11:30S 24°07' W 046°20'0 0.0
2017-Nov-24 11:00S 24°07' W 046°20'0 0.0
2017-Nov-24 10:30S 24°07' W 046°20'0 0.0
2017-Nov-24 10:00S 24°07' W 046°20'0 0.0
2017-Nov-24 09:30S 24°07' W 046°20'0 0.0
2017-Nov-24 09:00S 24°07' W 046°20'0 0.0
2017-Nov-24 08:30S 24°07' W 046°20'0 0.0
2017-Nov-24 08:00S 24°07' W 046°20'0 0.0
2017-Nov-24 07:30S 24°07' W 046°20'0 0.0
2017-Nov-24 07:00S 24°07' W 046°20'0 0.0
2017-Nov-24 06:30S 24°07' W 046°20'0 0.0
2017-Nov-24 05:54S 24°07' W 046°20'0 0.0
2017-Nov-24 05:24S 24°07' W 046°20'0 0.0
2017-Nov-24 05:00S 24°07' W 046°20'0 0.2
2017-Nov-24 04:30S 24°07' W 046°20'0 0.1
2017-Nov-24 03:57S 24°07' W 046°20'0 0.1
2017-Nov-24 03:30S 24°07' W 046°20'0 0.0
2017-Nov-24 03:00S 24°07' W 046°20'0 0.0
2017-Nov-24 02:24S 24°07' W 046°20'0 0.0
2017-Nov-24 01:48S 24°07' W 046°20'0 0.0
2017-Nov-24 01:30S 24°07' W 046°20'0 0.0
2017-Nov-24 00:00S 24°07' W 046°20'0 0.0
2017-Nov-23 22:36S 24°07' W 046°20'0 0.0
2017-Nov-23 21:51S 24°07' W 046°20'0 0.0
2017-Nov-23 21:30S 24°07' W 046°20'0 0.0
2017-Nov-23 20:54S 24°07' W 046°20'0 0.0
2017-Nov-23 20:21S 24°07' W 046°20'0 0.1
2017-Nov-23 19:57S 24°07' W 046°20'0 0.0
2017-Nov-23 19:30S 24°07' W 046°20'0 0.0
2017-Nov-23 18:54S 24°07' W 046°20'0 0.0
2017-Nov-23 18:27S 24°07' W 046°20'0 0.0
2017-Nov-23 17:57S 24°07' W 046°20'0 0.0
2017-Nov-23 17:30S 24°07' W 046°20'0 0.0
2017-Nov-23 17:00S 24°07' W 046°20'0 0.0
2017-Nov-23 16:30S 24°07' W 046°20'0 0.0
2017-Nov-23 16:00S 24°07' W 046°20'0 0.0
2017-Nov-23 15:18S 24°07' W 046°20'0 0.0
2017-Nov-23 14:57S 24°07' W 046°20'0 0.0
2017-Nov-23 14:24S 24°07' W 046°20'0 0.1
2017-Nov-23 13:57S 24°07' W 046°20'0 0.1
2017-Nov-23 13:30S 24°07' W 046°20'0 0.0
2017-Nov-23 12:51S 24°07' W 046°20'0 0.1
2017-Nov-23 12:30S 24°07' W 046°20'0 0.0
2017-Nov-23 12:00S 24°07' W 046°20'0 0.0
2017-Nov-23 11:30S 24°07' W 046°20'0 0.0
2017-Nov-23 11:00S 24°07' W 046°20'0 0.0
2017-Nov-23 10:30S 24°07' W 046°20'0 0.0
2017-Nov-23 09:57S 24°07' W 046°20'0 0.0
2017-Nov-23 09:27S 24°07' W 046°20'0 0.0
2017-Nov-23 09:00S 24°07' W 046°20'0 0.0
2017-Nov-23 08:30S 24°07' W 046°20'0 0.0
2017-Nov-23 08:00S 24°07' W 046°20'0 0.0
2017-Nov-23 07:30S 24°07' W 046°20'0 0.0
2017-Nov-23 07:00S 24°07' W 046°20'0 0.0
2017-Nov-23 06:30S 24°07' W 046°20'0 0.0
2017-Nov-23 06:00S 24°07' W 046°20'0 0.0
2017-Nov-23 05:30S 24°07' W 046°20'0 0.0
2017-Nov-23 04:54S 24°07' W 046°20'0 0.1
2017-Nov-23 04:30S 24°07' W 046°20'0 0.0
2017-Nov-23 04:00S 24°07' W 046°20'0 0.0
2017-Nov-23 03:30S 24°07' W 046°20'0 0.0
2017-Nov-23 03:00S 24°07' W 046°20'0 0.0
2017-Nov-23 02:27S 24°07' W 046°20'0 0.0
2017-Nov-23 02:00S 24°07' W 046°20'0 0.0
2017-Nov-23 01:30S 24°07' W 046°20'0 0.0
2017-Nov-23 01:00S 24°07' W 046°20'0 0.0
2017-Nov-23 00:30S 24°07' W 046°20'0 0.0
2017-Nov-23 00:00S 24°07' W 046°20'0 0.0
2017-Nov-22 23:30S 24°07' W 046°20'0 0.0
2017-Nov-22 22:57S 24°07' W 046°20'0 0.0
2017-Nov-22 22:24S 24°07' W 046°20'0 0.0
2017-Nov-22 22:00S 24°07' W 046°20'0 0.0
2017-Nov-22 21:30S 24°07' W 046°20'0 0.0
2017-Nov-22 21:00S 24°07' W 046°20'0 0.0
2017-Nov-22 20:30S 24°07' W 046°20'0 0.0
2017-Nov-22 19:57S 24°07' W 046°20'0 0.0
2017-Nov-22 19:18S 24°07' W 046°20'  

Dump ship's entire track history